Time;durP1;ratioP1;P1;durP2;ratioP2;P2;SDS_P1;SDS_P2;PMS_P1;PMS_P2;Temp;Humidity;BMP_temperature;BMP_pressure;BME280_temperature;BME280_humidity;BME280_pressure;Samples;Min_cycle;Max_cycle;Signal;HPM_P1;HPM_P2
2022/09/28 00:01:34;;;;;;;3.73;2.10;;;8.90;99.90;;;;;;5023181;28;20218;-65
2022/09/28 00:04:02;;;;;;;3.40;2.87;;;8.80;99.90;;;;;;5015469;28;20228;-66
2022/09/28 00:06:30;;;;;;;3.03;2.30;;;8.80;99.90;;;;;;5007698;28;20671;-66
2022/09/28 00:08:57;;;;;;;3.37;2.20;;;8.70;99.90;;;;;;4998341;28;20813;-65
2022/09/28 00:11:26;;;;;;;3.07;2.57;;;8.80;99.90;;;;;;5009443;28;20198;-65
2022/09/28 00:13:58;;;;;;;4.33;3.43;;;8.70;99.90;;;;;;5013754;28;20582;-65
2022/09/28 00:16:29;;;;;;;6.50;4.27;;;8.60;99.90;;;;;;5023329;28;20229;-65
2022/09/28 00:18:56;;;;;;;11.30;5.30;;;8.70;99.90;;;;;;5029492;28;20954;-65
2022/09/28 00:21:27;;;;;;;12.20;6.07;;;8.80;99.90;;;;;;5000461;28;20205;-65
2022/09/28 00:24:14;;;;;;;11.50;6.77;;;8.60;99.90;;;;;;5001203;28;20214;-65
2022/09/28 00:26:44;;;;;;;12.90;7.10;;;8.70;99.90;;;;;;5013792;28;20216;-66
2022/09/28 00:29:21;;;;;;;16.97;9.40;;;8.70;99.90;;;;;;5022738;28;20264;-66
2022/09/28 00:31:53;;;;;;;13.13;6.80;;;8.60;99.90;;;;;;5012438;28;20209;-65
2022/09/28 00:34:20;;;;;;;10.20;6.00;;;8.60;99.90;;;;;;5008729;28;20205;-65
2022/09/28 00:36:48;;;;;;;13.03;5.50;;;8.40;99.90;;;;;;5010471;28;20593;-65
2022/09/28 00:39:15;;;;;;;5.60;3.77;;;8.50;99.90;;;;;;4995465;28;20212;-66
2022/09/28 00:41:43;;;;;;;3.30;2.67;;;;;;;;;;5027927;28;20540;-66
2022/09/28 00:44:44;;;;;;;3.87;2.73;;;8.40;99.90;;;;;;5012350;28;20198;-65
2022/09/28 00:47:45;;;;;;;3.80;2.40;;;8.40;99.90;;;;;;4943146;28;20212;-65
2022/09/28 00:50:23;;;;;;;3.13;2.10;;;8.40;99.90;;;;;;4960413;28;24704;-65
2022/09/28 00:52:53;;;;;;;3.73;2.37;;;8.40;99.90;;;;;;4939069;28;20207;-65
2022/09/28 00:55:27;;;;;;;3.40;2.20;;;8.50;99.90;;;;;;4965791;28;20205;-65
2022/09/28 00:57:58;;;;;;;2.30;2.10;;;8.40;99.90;;;;;;5011339;28;20202;-65
2022/09/28 01:00:25;;;;;;;3.50;2.40;;;8.10;99.90;;;;;;5022378;28;20213;-65
2022/09/28 01:02:54;;;;;;;1.77;1.60;;;8.20;99.90;;;;;;5002933;28;20292;-66
2022/09/28 01:05:21;;;;;;;2.50;2.00;;;8.00;99.90;;;;;;5018871;28;20320;-65
2022/09/28 01:07:49;;;;;;;2.13;1.97;;;;;;;;;;5009353;28;20198;-65
2022/09/28 01:10:16;;;;;;;4.13;2.10;;;8.00;99.90;;;;;;5000541;28;20244;-65
2022/09/28 01:12:43;;;;;;;2.43;2.10;;;8.10;99.90;;;;;;5023946;28;20205;-67
2022/09/28 01:15:10;;;;;;;3.10;2.10;;;8.20;99.90;;;;;;5009434;28;20373;-65
2022/09/28 01:17:51;;;;;;;4.67;2.40;;;8.20;99.90;;;;;;5026405;28;20682;-65
2022/09/28 01:20:33;;;;;;;3.67;2.17;;;10.10;99.90;;;;;;5017217;28;20233;-65
2022/09/28 01:23:27;;;;;;;2.97;2.20;;;7.30;99.90;;;;;;5010093;28;20255;-65
2022/09/28 01:25:58;;;;;;;2.27;2.07;;;8.30;99.90;;;;;;4980234;28;20563;-65
2022/09/28 01:28:28;;;;;;;7.93;2.47;;;8.30;99.90;;;;;;5004195;28;20236;-65
2022/09/28 01:31:05;;;;;;;4.53;2.13;;;8.30;99.90;;;;;;5023118;28;20934;-65
2022/09/28 01:33:38;;;;;;;2.53;2.23;;;8.30;99.90;;;;;;5010669;28;20208;-65
2022/09/28 01:36:10;;;;;;;2.20;2.00;;;8.30;99.90;;;;;;5022291;28;20198;-65
2022/09/28 01:38:41;;;;;;;2.40;1.90;;;7.90;99.90;;;;;;5015755;28;20210;-65
2022/09/28 01:41:09;;;;;;;1.90;1.70;;;8.00;99.90;;;;;;4971745;28;21330;-65
2022/09/28 01:43:42;;;;;;;2.37;1.60;;;8.00;99.90;;;;;;5012645;28;20205;-65
2022/09/28 01:46:14;;;;;;;2.00;1.80;;;8.30;99.90;;;;;;5019100;28;20197;-65
2022/09/28 01:48:46;;;;;;;2.20;2.00;;;8.00;99.90;;;;;;5008151;28;20282;-65
2022/09/28 01:51:19;;;;;;;3.47;2.20;;;9.00;99.90;;;;;;5021156;28;20206;-65
2022/09/28 01:53:51;;;;;;;4.73;2.90;;;7.90;99.90;;;;;;5013496;28;20861;-65
2022/09/28 01:56:23;;;;;;;7.73;3.50;;;8.00;99.90;;;;;;4997389;28;20771;-65
2022/09/28 01:58:57;;;;;;;5.50;2.80;;;8.10;99.90;;;;;;5012050;28;20202;-65
2022/09/28 02:01:29;;;;;;;3.63;2.67;;;8.00;99.90;;;;;;5011410;28;20289;-65
2022/09/28 02:04:03;;;;;;;4.70;2.10;;;8.00;99.90;;;;;;5013316;28;20224;-65
2022/09/28 02:06:34;;;;;;;4.97;2.70;;;7.90;99.90;;;;;;5023724;28;20251;-65
2022/09/28 02:09:08;;;;;;;2.70;2.40;;;7.80;99.90;;;;;;5023522;28;20229;-65
2022/09/28 02:11:37;;;;;;;2.83;2.20;;;7.80;99.90;;;;;;4989634;28;20778;-65
2022/09/28 02:14:07;;;;;;;2.37;2.17;;;7.60;99.90;;;;;;5028587;28;20205;-65
2022/09/28 02:16:39;;;;;;;2.40;2.20;;;9.50;99.90;;;;;;5004147;28;20209;-65
2022/09/28 02:19:08;;;;;;;4.53;2.07;;;7.80;99.90;;;;;;5012152;28;20204;-65
2022/09/28 02:21:41;;;;;;;3.03;2.47;;;7.70;99.90;;;;;;5026511;28;20212;-65
2022/09/28 02:24:15;;;;;;;3.40;2.47;;;8.00;99.90;;;;;;5022011;28;20198;-65
2022/09/28 02:26:45;;;;;;;3.80;2.63;;;7.70;99.90;;;;;;4991046;28;20205;-65
2022/09/28 02:29:13;;;;;;;3.47;2.27;;;7.60;99.90;;;;;;5019894;28;20232;-65
2022/09/28 02:31:40;;;;;;;2.70;2.50;;;7.80;99.90;;;;;;5018455;28;20215;-65
2022/09/28 02:34:07;;;;;;;3.60;2.67;;;7.70;99.90;;;;;;5008573;28;20198;-65
2022/09/28 02:36:34;;;;;;;5.57;3.43;;;8.90;99.90;;;;;;5009724;28;20311;-65
2022/09/28 02:39:02;;;;;;;12.43;4.60;;;7.70;99.90;;;;;;5026664;28;20209;-65
2022/09/28 02:41:45;;;;;;;5.73;3.33;;;7.70;99.90;;;;;;5008007;28;20212;-65
2022/09/28 02:44:21;;;;;;;3.90;2.93;;;7.80;99.90;;;;;;4994964;28;20224;-65
2022/09/28 02:46:55;;;;;;;2.70;2.50;;;7.90;99.90;;;;;;5007664;28;20202;-65
2022/09/28 02:49:29;;;;;;;4.63;2.67;;;8.10;99.90;;;;;;5005514;28;20221;-66
2022/09/28 02:52:31;;;;;;;6.00;2.90;;;7.80;99.90;;;;;;5010757;28;20208;-66
2022/09/28 02:55:18;;;;;;;3.67;2.60;;;8.10;99.90;;;;;;5022738;28;20205;-65
2022/09/28 02:58:02;;;;;;;4.87;3.00;;;8.30;99.90;;;;;;4994505;28;20210;-65
2022/09/28 03:00:32;;;;;;;6.80;2.90;;;7.80;99.90;;;;;;5006845;28;20248;-65
2022/09/28 03:03:04;;;;;;;3.50;2.80;;;7.80;99.90;;;;;;5016761;28;20688;-65
2022/09/28 03:05:42;;;;;;;2.97;2.23;;;7.90;99.90;;;;;;4989248;28;20225;-65
2022/09/28 03:08:15;;;;;;;2.87;2.47;;;7.80;99.90;;;;;;5023371;28;20646;-65
2022/09/28 03:10:46;;;;;;;2.83;2.10;;;7.80;99.90;;;;;;5024065;28;20229;-65
2022/09/28 03:13:15;;;;;;;2.70;1.90;;;9.00;99.90;;;;;;4991638;28;20208;-65
2022/09/28 03:15:43;;;;;;;5.60;2.30;;;7.70;99.90;;;;;;5016177;28;20210;-65
2022/09/28 03:18:10;;;;;;;10.90;2.07;;;7.70;99.90;;;;;;5005439;28;20843;-65
2022/09/28 03:20:37;;;;;;;11.83;2.30;;;7.60;99.90;;;;;;5014125;28;20719;-65
2022/09/28 03:23:04;;;;;;;2.27;1.93;;;;;;;;;;5010417;28;20204;-65
2022/09/28 03:25:31;;;;;;;2.87;2.07;;;7.30;99.90;;;;;;5020252;28;20208;-66
2022/09/28 03:27:58;;;;;;;2.23;2.03;;;7.50;99.90;;;;;;5010374;28;20205;-65
2022/09/28 03:30:24;;;;;;;1.93;1.83;;;7.70;99.90;;;;;;4986722;28;20229;-65
2022/09/28 03:32:59;;;;;;;3.83;2.27;;;7.50;99.90;;;;;;5005899;28;20202;-65
2022/09/28 03:35:26;;;;;;;2.20;2.00;;;7.40;99.90;;;;;;5006710;28;20205;-65
2022/09/28 03:37:55;;;;;;;2.40;2.20;;;7.40;99.90;;;;;;5010965;28;20555;-65
2022/09/28 03:40:22;;;;;;;2.43;2.20;;;7.30;99.90;;;;;;5022774;28;20225;-66
2022/09/28 03:42:48;;;;;;;2.13;1.93;;;7.50;99.90;;;;;;5011506;28;20210;-65
2022/09/28 03:45:15;;;;;;;2.60;2.40;;;7.50;99.90;;;;;;4995846;28;20229;-65
2022/09/28 03:47:46;;;;;;;3.07;2.57;;;7.60;99.90;;;;;;5029379;28;20210;-64
2022/09/28 03:50:15;;;;;;;4.40;1.90;;;6.80;99.90;;;;;;4998006;28;20738;-65
2022/09/28 03:52:42;;;;;;;2.50;2.30;;;7.50;99.90;;;;;;5012695;28;20217;-65
2022/09/28 03:55:09;;;;;;;4.90;2.13;;;7.50;99.90;;;;;;5003533;28;20229;-65
2022/09/28 03:57:36;;;;;;;1.97;1.63;;;7.30;99.90;;;;;;5005194;28;20641;-64
2022/09/28 04:00:05;;;;;;;3.87;2.20;;;7.50;99.90;;;;;;5017284;28;20232;-64
2022/09/28 04:02:34;;;;;;;3.00;2.30;;;7.50;99.90;;;;;;5006661;28;20300;-65
2022/09/28 04:05:01;;;;;;;1.77;1.67;;;7.50;99.90;;;;;;5012321;28;20201;-65
2022/09/28 04:07:29;;;;;;;2.97;2.37;;;7.50;99.90;;;;;;5010065;28;20209;-64
2022/09/28 04:09:55;;;;;;;4.37;2.50;;;7.30;99.90;;;;;;5010240;28;20737;-64
2022/09/28 04:12:22;;;;;;;2.93;2.30;;;10.20;99.90;;;;;;5003825;28;20304;-65
2022/09/28 04:14:49;;;;;;;3.27;2.80;;;7.40;99.90;;;;;;5020411;28;20218;-65
2022/09/28 04:17:16;;;;;;;9.10;4.70;;;8.00;99.90;;;;;;4991031;28;20805;-65
2022/09/28 04:19:43;;;;;;;10.37;5.37;;;8.30;99.90;;;;;;5024917;28;20237;-65
2022/09/28 04:22:10;;;;;;;16.47;6.93;;;7.50;99.90;;;;;;4997869;28;20233;-65
2022/09/28 04:24:39;;;;;;;15.47;7.27;;;;;;;;;;5005295;28;20226;-64
2022/09/28 04:29:52;;;;;;;34.97;13.53;;;7.50;99.90;;;;;;4999766;28;20324;-65
2022/09/28 04:32:19;;;;;;;29.17;11.20;;;7.50;99.90;;;;;;4978360;28;20216;-65
2022/09/28 04:34:45;;;;;;;36.70;13.43;;;7.40;99.90;;;;;;4991993;28;20236;-65
2022/09/28 04:37:13;;;;;;;34.20;12.40;;;4.60;99.90;;;;;;4979664;28;20231;-65
2022/09/28 04:39:45;;;;;;;27.57;10.20;;;7.60;99.90;;;;;;4991447;28;20229;-65
2022/09/28 04:42:12;;;;;;;17.27;7.07;;;;;;;;;;5002457;28;20233;-64
2022/09/28 04:44:39;;;;;;;4.77;2.77;;;7.70;99.90;;;;;;5002243;28;20237;-66
2022/09/28 04:47:06;;;;;;;5.47;3.53;;;7.90;99.90;;;;;;4981800;28;20790;-65
2022/09/28 04:49:34;;;;;;;11.47;4.67;;;7.70;99.90;;;;;;5009409;28;20232;-65
2022/09/28 04:52:01;;;;;;;5.83;3.50;;;7.60;99.90;;;;;;5001953;28;20205;-66
2022/09/28 04:54:28;;;;;;;2.90;2.50;;;7.50;99.90;;;;;;4984449;28;20230;-65
2022/09/28 04:56:56;;;;;;;2.57;2.17;;;7.70;99.90;;;;;;4991846;28;20236;-65
2022/09/28 04:59:23;;;;;;;2.27;2.00;;;7.60;99.90;;;;;;4971880;28;20229;-65
2022/09/28 05:01:52;;;;;;;2.07;1.87;;;9.20;99.90;;;;;;4998835;28;20225;-65
2022/09/28 05:04:19;;;;;;;1.90;1.70;;;;;;;;;;4965126;28;20225;-67
2022/09/28 05:06:46;;;;;;;1.80;1.70;;;7.50;99.90;;;;;;5022437;28;20221;-65
2022/09/28 05:09:13;;;;;;;1.50;1.40;;;7.60;99.90;;;;;;4990332;28;22052;-65
2022/09/28 05:11:40;;;;;;;1.50;1.40;;;7.40;99.90;;;;;;4998889;28;20229;-64
2022/09/28 05:14:11;;;;;;;1.60;1.50;;;7.50;99.90;;;;;;5002561;28;21583;-64
2022/09/28 05:16:38;;;;;;;1.53;1.43;;;;;;;;;;4995715;28;20656;-65
2022/09/28 05:19:06;;;;;;;1.73;1.63;;;7.40;99.90;;;;;;4968664;28;20218;-65
2022/09/28 05:21:32;;;;;;;1.77;1.60;;;7.40;99.90;;;;;;5012164;28;20299;-65
2022/09/28 05:23:59;;;;;;;2.10;1.90;;;7.40;99.90;;;;;;5002914;28;20229;-65
2022/09/28 05:26:26;;;;;;;2.47;1.80;;;;;;;;;;5004204;28;20230;-65
2022/09/28 05:28:53;;;;;;;3.00;2.10;;;7.40;99.90;;;;;;5020495;28;20218;-65
2022/09/28 05:31:21;;;;;;;2.50;2.30;;;7.90;99.90;;;;;;5002175;28;20239;-64
2022/09/28 05:33:48;;;;;;;3.23;2.23;;;7.50;99.90;;;;;;4973948;28;20225;-64
2022/09/28 05:36:18;;;;;;;4.37;2.60;;;7.60;99.90;;;;;;5004495;28;20705;-66
2022/09/28 05:38:45;;;;;;;5.47;2.40;;;;;;;;;;5002109;28;20231;-65
2022/09/28 05:41:12;;;;;;;3.20;2.87;;;7.60;99.90;;;;;;4998750;28;23932;-65
2022/09/28 05:43:39;;;;;;;3.33;2.90;;;7.90;99.90;;;;;;5027076;28;20228;-65
2022/09/28 05:46:06;;;;;;;4.67;3.00;;;8.00;99.90;;;;;;4997633;28;20296;-65
2022/09/28 05:48:35;;;;;;;4.07;3.30;;;8.10;99.90;;;;;;5012864;28;20997;-65
2022/09/28 05:51:02;;;;;;;3.30;2.67;;;8.20;99.90;;;;;;4985155;28;20316;-65
2022/09/28 05:53:29;;;;;;;3.97;2.73;;;8.10;99.90;;;;;;5029849;28;20200;-65
2022/09/28 05:55:58;;;;;;;4.43;3.20;;;8.10;99.90;;;;;;5014786;28;20353;-65
2022/09/28 05:58:24;;;;;;;3.43;2.83;;;8.40;99.90;;;;;;5013098;28;20201;-65
2022/09/28 06:00:54;;;;;;;7.20;3.60;;;;;;;;;;4987242;28;20251;-66
2022/09/28 06:03:21;;;;;;;4.00;3.53;;;8.70;99.90;;;;;;5007021;28;20310;-65
2022/09/28 06:05:49;;;;;;;5.37;3.73;;;8.80;99.90;;;;;;4987735;28;20248;-66
2022/09/28 06:08:16;;;;;;;5.03;3.50;;;8.70;99.90;;;;;;5012153;28;20202;-65
2022/09/28 06:10:43;;;;;;;5.20;3.47;;;8.80;99.90;;;;;;5010933;28;20251;-66
2022/09/28 06:13:10;;;;;;;3.87;3.37;;;9.00;99.90;;;;;;5008280;28;20201;-66
2022/09/28 06:15:38;;;;;;;9.37;3.40;;;8.90;99.90;;;;;;5016907;28;20221;-65
2022/09/28 06:18:06;;;;;;;5.43;3.43;;;9.10;99.90;;;;;;4992560;28;20240;-66
2022/09/28 06:20:35;;;;;;;4.97;3.33;;;9.00;99.90;;;;;;4994065;28;20241;-66
2022/09/28 06:23:04;;;;;;;4.30;3.90;;;10.50;99.90;;;;;;5028381;28;20915;-65
2022/09/28 06:25:31;;;;;;;5.87;3.87;;;9.10;99.90;;;;;;5033881;28;20212;-65
2022/09/28 06:27:59;;;;;;;6.50;4.03;;;8.90;99.90;;;;;;5041177;28;20221;-65
2022/09/28 06:30:28;;;;;;;5.80;4.57;;;9.20;99.90;;;;;;5024950;28;20229;-66
2022/09/28 06:32:56;;;;;;;5.57;4.10;;;9.30;99.90;;;;;;5029636;28;20982;-66
2022/09/28 06:35:24;;;;;;;6.97;4.60;;;9.50;99.90;;;;;;5013573;28;20228;-66
2022/09/28 06:37:51;;;;;;;7.30;4.57;;;9.40;99.90;;;;;;5042241;28;20278;-66
2022/09/28 06:40:20;;;;;;;6.73;3.90;;;8.00;99.90;;;;;;5044837;28;20697;-66
2022/09/28 06:42:55;;;;;;;5.73;4.07;;;9.70;99.90;;;;;;5030660;28;20582;-66
2022/09/28 06:45:24;;;;;;;5.40;4.33;;;9.50;99.90;;;;;;5028233;28;20246;-66
2022/09/28 06:47:54;;;;;;;6.83;4.70;;;9.40;99.90;;;;;;5025702;28;20203;-66
2022/09/28 06:50:20;;;;;;;6.43;4.13;;;9.60;99.90;;;;;;5031030;28;20213;-66
2022/09/28 06:52:51;;;;;;;4.53;4.03;;;9.50;99.90;;;;;;5012804;28;20208;-66
2022/09/28 06:55:19;;;;;;;7.07;3.83;;;9.50;99.90;;;;;;5042921;28;20201;-66
2022/09/28 06:57:46;;;;;;;5.27;3.87;;;9.50;99.90;;;;;;5027378;28;20200;-66
2022/09/28 07:00:14;;;;;;;5.10;3.27;;;9.40;99.90;;;;;;5029057;28;20681;-66
2022/09/28 07:02:41;;;;;;;3.87;3.47;;;9.40;99.90;;;;;;5048007;28;20197;-66
2022/09/28 07:05:09;;;;;;;4.93;3.10;;;9.40;99.90;;;;;;5030986;28;24537;-66
2022/09/28 07:07:36;;;;;;;4.63;3.90;;;9.40;99.90;;;;;;5014776;28;20212;-66
2022/09/28 07:10:02;;;;;;;5.20;4.20;;;7.70;99.90;;;;;;5037549;28;20204;-66
2022/09/28 07:12:31;;;;;;;5.07;4.37;;;9.50;99.90;;;;;;5030420;28;20226;-66
2022/09/28 07:14:57;;;;;;;7.33;4.07;;;10.00;99.90;;;;;;5027746;28;20193;-66
2022/09/28 07:17:24;;;;;;;6.23;4.80;;;9.70;99.90;;;;;;5028911;28;20216;-65
2022/09/28 07:19:52;;;;;;;6.53;4.97;;;9.90;99.90;;;;;;5046392;28;20246;-65
2022/09/28 07:22:19;;;;;;;9.00;5.53;;;9.70;99.90;;;;;;5006885;28;20209;-66
2022/09/28 07:24:46;;;;;;;12.13;6.17;;;9.90;99.90;;;;;;5045837;28;20208;-67
2022/09/28 07:27:13;;;;;;;7.97;6.03;;;10.00;99.90;;;;;;5037829;28;20208;-65
2022/09/28 07:29:41;;;;;;;12.43;8.57;;;10.00;99.90;;;;;;5042465;28;21061;-67
2022/09/28 07:32:08;;;;;;;9.20;7.00;;;10.40;99.90;;;;;;5033803;28;20238;-66
2022/09/28 07:34:42;;;;;;;20.20;10.23;;;10.20;99.90;;;;;;5053209;28;20250;-65
2022/09/28 07:37:09;;;;;;;17.17;10.20;;;10.30;99.90;;;;;;5033573;28;20307;-66
2022/09/28 07:41:10;;;;;;;18.83;10.43;;;10.30;99.90;;;;;;5020442;28;20682;-65
2022/09/28 07:42:23;;;;;;;16.20;10.70;;;10.30;99.90;;;;;;5049733;28;20753;-65
2022/09/28 07:44:51;;;;;;;21.43;11.33;;;10.40;99.90;;;;;;5028473;28;20228;-66
2022/09/28 07:47:25;;;;;;;18.93;12.33;;;10.60;99.90;;;;;;5030423;28;20378;-65
2022/09/28 07:49:53;;;;;;;25.10;13.67;;;10.60;99.90;;;;;;5043321;28;20266;-66
2022/09/28 07:52:21;;;;;;;17.03;12.60;;;10.50;99.90;;;;;;5033069;28;20252;-66
2022/09/28 07:54:50;;;;;;;20.50;12.33;;;10.60;99.90;;;;;;5021045;28;20331;-65
2022/09/28 07:57:17;;;;;;;20.27;12.90;;;10.60;99.90;;;;;;5045663;28;20603;-66
2022/09/28 07:59:44;;;;;;;22.80;12.97;;;10.60;99.90;;;;;;5033047;28;20204;-66
2022/09/28 08:02:13;;;;;;;24.20;12.00;;;10.60;99.90;;;;;;5021970;28;20220;-66
2022/09/28 08:04:40;;;;;;;18.83;12.55;;;10.60;99.90;;;;;;5045199;28;20501;-65
2022/09/28 08:07:09;;;;;;;18.35;12.07;;;10.70;99.90;;;;;;5031480;28;20204;-65
2022/09/28 08:09:35;;;;;;;17.57;11.40;;;11.10;99.90;;;;;;5022101;28;20742;-65
2022/09/28 08:12:03;;;;;;;24.80;12.40;;;10.70;99.90;;;;;;5043260;28;20228;-66
2022/09/28 08:14:32;;;;;;;18.03;12.10;;;10.70;99.90;;;;;;5036489;28;20613;-65
2022/09/28 08:16:59;;;;;;;18.77;12.27;;;10.60;99.90;;;;;;5029883;28;20267;-65
2022/09/28 08:21:43;;;;;;;25.07;13.57;;;10.70;99.90;;;;;;5038901;28;20233;-66
2022/09/28 08:22:16;;;;;;;17.37;11.53;;;10.70;99.90;;;;;;5026366;28;20297;-65
2022/09/28 08:24:43;;;;;;;18.58;12.02;;;10.70;99.90;;;;;;4987577;28;20210;-65
2022/09/28 08:27:10;;;;;;;19.40;11.97;;;10.70;99.90;;;;;;5024842;28;20209;-65
2022/09/28 08:29:37;;;;;;;18.93;11.83;;;10.80;99.90;;;;;;5029365;28;20206;-65
2022/09/28 08:32:06;;;;;;;19.10;12.10;;;10.70;99.90;;;;;;5013176;28;20226;-66
2022/09/28 08:34:35;;;;;;;21.93;12.10;;;10.90;99.90;;;;;;5015050;28;20770;-65
2022/09/28 08:37:02;;;;;;;19.60;12.80;;;10.90;99.90;;;;;;5009831;28;20204;-66
2022/09/28 08:39:29;;;;;;;21.57;12.60;;;10.80;99.90;;;;;;4987231;28;20221;-65
2022/09/28 08:42:06;;;;;;;21.07;12.87;;;10.80;99.90;;;;;;4981034;28;20233;-66
2022/09/28 08:44:40;;;;;;;23.13;12.37;;;10.80;99.90;;;;;;5011897;28;20198;-65
2022/09/28 08:48:42;;;;;;;19.23;12.17;;;10.80;99.90;;;;;;5014800;28;20214;-67
2022/09/28 08:50:03;;;;;;;18.97;11.63;;;10.70;99.90;;;;;;4995171;28;20220;-67
2022/09/28 08:52:33;;;;;;;17.60;11.13;;;10.70;99.90;;;;;;5015517;28;20539;-66
2022/09/28 08:55:04;;;;;;;18.27;11.48;;;10.70;99.90;;;;;;4993096;28;20212;-68
2022/09/28 08:57:38;;;;;;;18.48;11.40;;;10.80;99.90;;;;;;5000991;28;20296;-66
2022/09/28 09:00:06;;;;;;;18.38;11.10;;;11.00;99.90;;;;;;5011163;28;20198;-66
2022/09/28 09:02:35;;;;;;;15.00;11.15;;;10.90;99.90;;;;;;5011333;28;20209;-65
2022/09/28 09:05:05;;;;;;;20.27;11.57;;;11.20;99.90;;;;;;5001027;28;20259;-66
2022/09/28 09:07:52;;;;;;;18.50;11.07;;;11.00;99.90;;;;;;5022380;28;20271;-67
2022/09/28 09:10:43;;;;;;;17.17;9.52;;;11.10;99.90;;;;;;4975083;28;20218;-67
2022/09/28 09:13:40;;;;;;;15.27;9.05;;;10.90;99.90;;;;;;5007751;28;20379;-66
2022/09/28 09:16:18;;;;;;;14.02;9.30;;;10.90;99.90;;;;;;5011086;28;20236;-66
2022/09/28 09:18:50;;;;;;;15.27;8.55;;;10.70;99.90;;;;;;5009699;28;20209;-66
2022/09/28 09:21:33;;;;;;;14.68;9.38;;;10.60;99.90;;;;;;5007160;28;20218;-66
2022/09/28 09:24:07;;;;;;;13.25;8.60;;;10.70;99.90;;;;;;5023644;28;20251;-66
2022/09/28 09:26:38;;;;;;;14.15;8.73;;;10.60;99.90;;;;;;4990273;28;20214;-66
2022/09/28 09:29:22;;;;;;;14.60;9.70;;;10.70;99.90;;;;;;5005977;28;20298;-66
2022/09/28 09:32:07;;;;;;;16.98;9.20;;;10.70;99.90;;;;;;5025681;28;20229;-66
2022/09/28 09:34:51;;;;;;;14.23;8.98;;;10.70;99.90;;;;;;5015907;28;20228;-66
2022/09/28 09:37:50;;;;;;;13.45;8.15;;;10.80;99.90;;;;;;5011693;28;20208;-66
2022/09/28 09:40:39;;;;;;;14.93;9.00;;;10.70;99.90;;;;;;5009660;28;20206;-65
2022/09/28 09:43:27;;;;;;;17.58;9.05;;;10.90;99.90;;;;;;4996517;28;21603;-66
2022/09/28 09:46:05;;;;;;;11.77;7.80;;;10.60;99.90;;;;;;5006575;28;20210;-66
2022/09/28 09:48:37;;;;;;;12.25;7.45;;;10.70;99.90;;;;;;5020906;28;20517;-67
2022/09/28 09:51:13;;;;;;;12.50;7.43;;;13.10;99.90;;;;;;4999809;28;20222;-66
2022/09/28 09:53:48;;;;;;;13.40;7.90;;;10.70;99.90;;;;;;5026123;28;20204;-66
2022/09/28 09:56:20;;;;;;;15.77;7.15;;;11.00;99.90;;;;;;4996619;28;20240;-65
2022/09/28 09:58:51;;;;;;;12.57;7.30;;;11.20;99.90;;;;;;5007026;28;20201;-66
2022/09/28 10:01:23;;;;;;;14.30;7.03;;;10.90;99.90;;;;;;5022093;28;20916;-65
2022/09/28 10:03:51;;;;;;;12.07;8.40;;;11.10;99.90;;;;;;5006303;28;20220;-67
2022/09/28 10:06:25;;;;;;;8.98;6.60;;;11.10;99.90;;;;;;4995390;28;20321;-66
2022/09/28 10:09:04;;;;;;;11.98;6.75;;;11.00;99.90;;;;;;5019118;28;20674;-67
2022/09/28 10:11:35;;;;;;;11.15;6.03;;;11.10;99.90;;;;;;5020212;28;20221;-67
2022/09/28 10:14:03;;;;;;;7.85;5.78;;;10.90;99.90;;;;;;4999954;28;20229;-66
2022/09/28 10:16:31;;;;;;;10.48;5.85;;;11.40;99.90;;;;;;5015243;28;20236;-65
2022/09/28 10:18:58;;;;;;;10.35;6.15;;;7.90;99.90;;;;;;5003622;28;20229;-65
2022/09/28 10:21:26;;;;;;;8.48;5.68;;;11.10;99.90;;;;;;5039077;28;20204;-66
2022/09/28 10:23:58;;;;;;;8.95;5.85;;;11.20;99.90;;;;;;5004776;28;20671;-66
2022/09/28 10:26:29;;;;;;;12.43;6.57;;;11.20;99.90;;;;;;5034849;28;20221;-65
2022/09/28 10:28:59;;;;;;;10.60;5.10;;;11.00;99.90;;;;;;5001502;28;20732;-65
2022/09/28 10:31:40;;;;;;;6.53;4.55;;;11.20;99.90;;;;;;5027345;28;20728;-66
2022/09/28 10:34:12;;;;;;;11.07;6.03;;;11.30;99.90;;;;;;5036644;28;20213;-66
2022/09/28 10:36:57;;;;;;;10.55;5.95;;;11.40;99.90;;;;;;5028232;28;21684;-66
2022/09/28 10:39:32;;;;;;;7.00;4.45;;;11.50;99.90;;;;;;5022789;28;20282;-65
2022/09/28 10:42:02;;;;;;;7.57;4.68;;;11.60;99.90;;;;;;5036152;28;20220;-65
2022/09/28 10:44:33;;;;;;;9.32;4.65;;;11.40;99.90;;;;;;5012137;28;20232;-66
2022/09/28 10:47:01;;;;;;;4.45;3.35;;;11.30;99.90;;;;;;5003605;28;21258;-65
2022/09/28 10:49:35;;;;;;;5.63;3.63;;;11.50;99.90;;;;;;5026096;28;20229;-65
2022/09/28 10:52:03;;;;;;;4.97;3.28;;;;;;;;;;5023248;28;20235;-65
2022/09/28 10:54:31;;;;;;;3.13;1.95;;;11.80;98.90;;;;;;5022635;28;20225;-66
2022/09/28 10:56:59;;;;;;;1.40;1.30;;;11.40;97.40;;;;;;5033489;28;20744;-66
2022/09/28 10:59:47;;;;;;;6.80;2.08;;;11.30;96.00;;;;;;5041674;28;20225;-65
2022/09/28 11:02:24;;;;;;;4.22;1.73;;;11.30;95.60;;;;;;5005725;28;20205;-66
2022/09/28 11:04:53;;;;;;;3.10;1.83;;;11.30;96.80;;;;;;5047013;28;20211;-66
2022/09/28 11:07:23;;;;;;;6.60;3.95;;;11.30;99.90;;;;;;5037070;28;20212;-66
2022/09/28 11:09:54;;;;;;;4.68;3.20;;;11.30;99.90;;;;;;5028365;28;20219;-66
2022/09/28 11:12:23;;;;;;;4.43;3.15;;;11.40;99.90;;;;;;5045527;28;20224;-66
2022/09/28 11:14:57;;;;;;;4.28;3.47;;;11.60;99.90;;;;;;5016705;28;20305;-66
2022/09/28 11:17:29;;;;;;;5.45;3.08;;;11.40;99.90;;;;;;5028844;28;20204;-67
2022/09/28 11:19:56;;;;;;;6.07;3.53;;;11.30;99.90;;;;;;5015121;28;20260;-66
2022/09/28 11:22:27;;;;;;;3.67;2.90;;;11.50;99.90;;;;;;5031257;28;20235;-65
2022/09/28 11:25:14;;;;;;;5.05;3.08;;;11.50;99.90;;;;;;5014825;28;21720;-65
2022/09/28 11:27:41;;;;;;;5.60;3.70;;;11.60;99.90;;;;;;5041221;28;21153;-65
2022/09/28 11:30:22;;;;;;;3.83;2.60;;;11.40;99.90;;;;;;5037085;28;21003;-68
2022/09/28 11:32:50;;;;;;;6.28;3.95;;;11.60;99.90;;;;;;4991968;28;20239;-65
2022/09/28 11:35:19;;;;;;;6.43;3.90;;;11.60;99.90;;;;;;5039408;28;20225;-65
2022/09/28 11:38:08;;;;;;;5.70;2.78;;;11.60;99.90;;;;;;5020481;28;20767;-65
2022/09/28 11:40:53;;;;;;;3.53;2.15;;;12.50;99.90;;;;;;5023623;28;20237;-65
2022/09/28 11:43:28;;;;;;;5.00;2.80;;;;;;;;;;5038874;28;20221;-65
2022/09/28 11:46:03;;;;;;;6.10;2.95;;;12.80;99.90;;;;;;5000604;28;20516;-67
2022/09/28 11:48:39;;;;;;;6.22;2.60;;;11.50;99.90;;;;;;5016331;28;20212;-67
2022/09/28 11:51:15;;;;;;;3.78;2.55;;;11.60;99.90;;;;;;5026688;28;20225;-66
2022/09/28 11:53:47;;;;;;;2.95;2.20;;;11.70;99.90;;;;;;5026991;28;20247;-65
2022/09/28 11:56:21;;;;;;;3.53;2.13;;;11.90;99.90;;;;;;5023537;28;20225;-66
2022/09/28 11:58:51;;;;;;;5.13;2.05;;;11.90;99.90;;;;;;5003226;28;20278;-66
2022/09/28 12:01:24;;;;;;;5.75;2.90;;;12.10;99.90;;;;;;5026460;28;20317;-66
2022/09/28 12:03:55;;;;;;;4.97;2.50;;;12.10;99.90;;;;;;4955041;28;20327;-65
2022/09/28 12:06:27;;;;;;;4.60;2.80;;;11.90;99.90;;;;;;5008765;28;20393;-66
2022/09/28 12:09:02;;;;;;;5.60;2.58;;;11.90;99.90;;;;;;5020830;28;20600;-67
2022/09/28 12:11:35;;;;;;;3.70;2.40;;;12.00;99.90;;;;;;5019024;28;20204;-66
2022/09/28 12:14:07;;;;;;;6.18;2.40;;;12.00;99.90;;;;;;5034919;28;20698;-66
2022/09/28 12:16:41;;;;;;;3.33;2.17;;;12.30;99.90;;;;;;5031855;28;20204;-66
2022/09/28 12:19:15;;;;;;;3.58;1.73;;;12.20;99.90;;;;;;4986453;28;20208;-66
2022/09/28 12:21:46;;;;;;;2.83;1.80;;;11.90;99.90;;;;;;5007100;28;20305;-66
2022/09/28 12:24:19;;;;;;;2.53;1.90;;;12.30;99.90;;;;;;5014081;28;20219;-66
2022/09/28 12:26:52;;;;;;;2.90;1.80;;;12.30;99.90;;;;;;5023557;28;20210;-66
2022/09/28 12:29:23;;;;;;;2.42;1.60;;;12.40;99.90;;;;;;5042243;28;20197;-66
2022/09/28 12:31:58;;;;;;;1.90;1.40;;;12.40;99.90;;;;;;5036066;28;20714;-66
2022/09/28 12:34:25;;;;;;;2.03;1.52;;;12.70;99.90;;;;;;4991821;28;20220;-66
2022/09/28 12:37:27;;;;;;;1.77;1.48;;;12.40;99.90;;;;;;5011925;28;20213;-66
2022/09/28 12:40:11;;;;;;;1.65;1.40;;;12.40;99.90;;;;;;4983340;28;20200;-66
2022/09/28 12:43:00;;;;;;;2.03;1.60;;;12.30;99.90;;;;;;5019459;28;20685;-65
2022/09/28 12:45:40;;;;;;;4.50;1.73;;;12.30;99.90;;;;;;5008127;28;20290;-66
2022/09/28 12:48:35;;;;;;;1.30;1.20;;;10.70;99.90;;;;;;5011773;28;20221;-67
2022/09/28 12:51:11;;;;;;;2.15;1.30;;;12.20;99.90;;;;;;5006001;28;20860;-65
2022/09/28 12:54:00;;;;;;;2.67;1.17;;;12.10;99.90;;;;;;5025304;28;20232;-66
2022/09/28 12:56:37;;;;;;;1.77;1.20;;;12.00;99.90;;;;;;5005850;28;21132;-66
2022/09/28 12:59:18;;;;;;;1.40;1.20;;;12.00;99.90;;;;;;5004716;28;20263;-66
2022/09/28 13:02:02;;;;;;;3.47;1.40;;;12.00;99.90;;;;;;5028853;28;20207;-65
2022/09/28 13:04:47;;;;;;;3.22;1.67;;;11.90;99.90;;;;;;4999753;28;20239;-65
2022/09/28 13:07:20;;;;;;;2.70;1.38;;;12.00;99.90;;;;;;5020153;28;20227;-64
2022/09/28 13:13:28;;;;;;;8.20;1.80;;;12.30;99.90;;;;;;5017846;28;20235;-65
2022/09/28 13:16:01;;;;;;;3.80;1.75;;;12.00;99.90;;;;;;5028300;28;20599;-65
2022/09/28 13:18:33;;;;;;;3.25;2.22;;;11.30;99.90;;;;;;5003872;28;20201;-66
2022/09/28 13:21:10;;;;;;;4.35;2.22;;;12.10;99.90;;;;;;5015289;28;20224;-65
2022/09/28 13:23:41;;;;;;;4.50;2.38;;;12.10;99.90;;;;;;5028350;28;20239;-65